sensor_id;sensor_type;location;lat;lon;timestamp;pressure;altitude;pressure_sealevel;temperature;humidity
63694;BME280;49839;51.798;10.954;2022-10-22T00:02:27;98609.22;;;14.25;nan
63694;BME280;49839;51.798;10.954;2022-10-22T00:04:56;98604.03;;;14.23;nan
63694;BME280;49839;51.798;10.954;2022-10-22T00:07:24;98608.25;;;14.26;nan
63694;BME280;49839;51.798;10.954;2022-10-22T00:09:52;98626.66;;;14.27;nan
63694;BME280;49839;51.798;10.954;2022-10-22T00:12:20;98629.19;;;14.29;nan
63694;BME280;49839;51.798;10.954;2022-10-22T00:14:48;98609.72;;;14.30;nan
63694;BME280;49839;51.798;10.954;2022-10-22T00:17:16;98608.72;;;14.31;nan
63694;BME280;49839;51.798;10.954;2022-10-22T00:19:44;98615.72;;;14.32;nan
63694;BME280;49839;51.798;10.954;2022-10-22T00:22:13;98605.13;;;14.32;nan
63694;BME280;49839;51.798;10.954;2022-10-22T00:24:41;98611.25;;;14.32;nan
63694;BME280;49839;51.798;10.954;2022-10-22T00:27:10;98614.75;;;14.33;nan
63694;BME280;49839;51.798;10.954;2022-10-22T00:29:38;98615.47;;;14.35;nan
63694;BME280;49839;51.798;10.954;2022-10-22T00:32:07;98602.97;;;14.37;nan
63694;BME280;49839;51.798;10.954;2022-10-22T00:34:34;98604.63;;;14.38;nan
63694;BME280;49839;51.798;10.954;2022-10-22T00:37:02;98605.34;;;14.40;nan
63694;BME280;49839;51.798;10.954;2022-10-22T00:39:31;98605.47;;;14.39;nan
63694;BME280;49839;51.798;10.954;2022-10-22T00:41:59;98613.31;;;14.40;nan
63694;BME280;49839;51.798;10.954;2022-10-22T00:44:59;98611.63;;;14.39;nan
63694;BME280;49839;51.798;10.954;2022-10-22T00:47:31;98614.16;;;14.41;nan
63694;BME280;49839;51.798;10.954;2022-10-22T00:50:01;98601.03;;;14.39;nan
63694;BME280;49839;51.798;10.954;2022-10-22T00:52:34;98602.69;;;14.40;nan
63694;BME280;49839;51.798;10.954;2022-10-22T00:55:05;98609.94;;;14.38;nan
63694;BME280;49839;51.798;10.954;2022-10-22T00:57:33;98626.81;;;14.37;nan
63694;BME280;49839;51.798;10.954;2022-10-22T01:00:04;98627.75;;;14.36;nan
63694;BME280;49839;51.798;10.954;2022-10-22T01:02:34;98631.97;;;14.39;nan
63694;BME280;49839;51.798;10.954;2022-10-22T01:05:02;98623.78;;;14.42;nan
63694;BME280;49839;51.798;10.954;2022-10-22T01:07:30;98621.88;;;14.44;nan
63694;BME280;49839;51.798;10.954;2022-10-22T01:10:03;98619.00;;;14.47;nan
63694;BME280;49839;51.798;10.954;2022-10-22T01:12:41;98608.16;;;14.50;nan
63694;BME280;49839;51.798;10.954;2022-10-22T01:15:18;98605.25;;;14.53;nan
63694;BME280;49839;51.798;10.954;2022-10-22T01:17:55;98609.59;;;14.54;nan
63694;BME280;49839;51.798;10.954;2022-10-22T01:20:43;98610.56;;;14.53;nan
63694;BME280;49839;51.798;10.954;2022-10-22T01:23:26;98615.03;;;14.52;nan
63694;BME280;49839;51.798;10.954;2022-10-22T01:26:04;98616.84;;;14.52;nan
63694;BME280;49839;51.798;10.954;2022-10-22T01:28:50;98615.03;;;14.52;nan
63694;BME280;49839;51.798;10.954;2022-10-22T01:31:21;98618.66;;;14.51;nan
63694;BME280;49839;51.798;10.954;2022-10-22T01:33:52;98616.13;;;14.50;nan
63694;BME280;49839;51.798;10.954;2022-10-22T01:36:21;98622.28;;;14.50;nan
63694;BME280;49839;51.798;10.954;2022-10-22T01:38:49;98620.31;;;14.52;nan
63694;BME280;49839;51.798;10.954;2022-10-22T01:41:18;98611.53;;;14.52;nan
63694;BME280;49839;51.798;10.954;2022-10-22T01:43:47;98612.38;;;14.52;nan
63694;BME280;49839;51.798;10.954;2022-10-22T01:46:15;98611.53;;;14.52;nan
63694;BME280;49839;51.798;10.954;2022-10-22T01:48:46;98610.81;;;14.50;nan
63694;BME280;49839;51.798;10.954;2022-10-22T01:51:33;98615.28;;;14.49;nan
63694;BME280;49839;51.798;10.954;2022-10-22T01:54:17;98619.63;;;14.50;nan
63694;BME280;49839;51.798;10.954;2022-10-22T01:56:55;98612.50;;;14.51;nan
63694;BME280;49839;51.798;10.954;2022-10-22T01:59:33;98609.84;;;14.51;nan
63694;BME280;49839;51.798;10.954;2022-10-22T02:02:11;98602.88;;;14.50;nan
63694;BME280;49839;51.798;10.954;2022-10-22T02:04:45;98601.91;;;14.51;nan
63694;BME280;49839;51.798;10.954;2022-10-22T02:07:18;98600.09;;;14.51;nan
63694;BME280;49839;51.798;10.954;2022-10-22T02:09:48;98593.69;;;14.54;nan
63694;BME280;49839;51.798;10.954;2022-10-22T02:12:20;98591.16;;;14.52;nan
63694;BME280;49839;51.798;10.954;2022-10-22T02:14:52;98592.13;;;14.51;nan
63694;BME280;49839;51.798;10.954;2022-10-22T02:17:22;98583.69;;;14.46;nan
63694;BME280;49839;51.798;10.954;2022-10-22T02:19:53;98581.28;;;14.43;nan
63694;BME280;49839;51.798;10.954;2022-10-22T02:22:23;98582.34;;;14.41;nan
63694;BME280;49839;51.798;10.954;2022-10-22T02:24:52;98586.78;;;14.40;nan
63694;BME280;49839;51.798;10.954;2022-10-22T02:27:23;98590.16;;;14.42;nan
63694;BME280;49839;51.798;10.954;2022-10-22T02:29:58;98594.63;;;14.42;nan
63694;BME280;49839;51.798;10.954;2022-10-22T02:32:30;98595.47;;;14.42;nan
63694;BME280;49839;51.798;10.954;2022-10-22T02:34:59;98595.47;;;14.42;nan
63694;BME280;49839;51.798;10.954;2022-10-22T02:37:28;98601.03;;;14.39;nan
63694;BME280;49839;51.798;10.954;2022-10-22T02:39:56;98600.41;;;14.35;nan
63694;BME280;49839;51.798;10.954;2022-10-22T02:42:25;98593.53;;;14.33;nan
63694;BME280;49839;51.798;10.954;2022-10-22T02:44:52;98598.00;;;14.32;nan
63694;BME280;49839;51.798;10.954;2022-10-22T02:47:21;98596.19;;;14.33;nan
63694;BME280;49839;51.798;10.954;2022-10-22T02:49:49;98603.19;;;14.34;nan
63694;BME280;49839;51.798;10.954;2022-10-22T02:52:17;98603.19;;;14.34;nan
63694;BME280;49839;51.798;10.954;2022-10-22T02:54:44;98605.84;;;14.34;nan
63694;BME280;49839;51.798;10.954;2022-10-22T02:57:12;98609.31;;;14.34;nan
63694;BME280;49839;51.798;10.954;2022-10-22T02:59:40;98611.00;;;14.35;nan
63694;BME280;49839;51.798;10.954;2022-10-22T03:02:07;98616.31;;;14.35;nan
63694;BME280;49839;51.798;10.954;2022-10-22T03:04:36;98624.25;;;14.35;nan
63694;BME280;49839;51.798;10.954;2022-10-22T03:07:04;98627.75;;;14.36;nan
63694;BME280;49839;51.798;10.954;2022-10-22T03:09:32;98626.91;;;14.35;nan
63694;BME280;49839;51.798;10.954;2022-10-22T03:11:59;98630.66;;;14.33;nan
63694;BME280;49839;51.798;10.954;2022-10-22T03:14:27;98628.00;;;14.33;nan
63694;BME280;49839;51.798;10.954;2022-10-22T03:16:54;98629.81;;;14.32;nan
63694;BME280;49839;51.798;10.954;2022-10-22T03:19:22;98628.84;;;14.33;nan
63694;BME280;49839;51.798;10.954;2022-10-22T03:21:54;98628.00;;;14.33;nan
63694;BME280;49839;51.798;10.954;2022-10-22T03:24:25;98627.03;;;14.34;nan
63694;BME280;49839;51.798;10.954;2022-10-22T03:26:54;98632.47;;;14.32;nan
63694;BME280;49839;51.798;10.954;2022-10-22T03:29:22;98627.88;;;14.34;nan
63694;BME280;49839;51.798;10.954;2022-10-22T03:31:52;98629.47;;;14.37;nan
63694;BME280;49839;51.798;10.954;2022-10-22T03:34:20;98624.16;;;14.37;nan
63694;BME280;49839;51.798;10.954;2022-10-22T03:36:48;98616.91;;;14.39;nan
63694;BME280;49839;51.798;10.954;2022-10-22T03:39:18;98629.22;;;14.40;nan
63694;BME280;49839;51.798;10.954;2022-10-22T03:41:47;98629.09;;;14.42;nan
63694;BME280;49839;51.798;10.954;2022-10-22T03:44:16;98634.28;;;14.43;nan
63694;BME280;49839;51.798;10.954;2022-10-22T03:46:44;98645.94;;;14.41;nan
63694;BME280;49839;51.798;10.954;2022-10-22T03:49:12;98646.78;;;14.41;nan
63694;BME280;49839;51.798;10.954;2022-10-22T03:51:39;98654.03;;;14.39;nan
63694;BME280;49839;51.798;10.954;2022-10-22T03:54:07;98649.69;;;14.38;nan
63694;BME280;49839;51.798;10.954;2022-10-22T03:56:36;98648.84;;;14.38;nan
63694;BME280;49839;51.798;10.954;2022-10-22T03:59:04;98655.97;;;14.37;nan
63694;BME280;49839;51.798;10.954;2022-10-22T04:01:31;98655.13;;;14.36;nan
63694;BME280;49839;51.798;10.954;2022-10-22T04:03:59;98655.22;;;14.35;nan
63694;BME280;49839;51.798;10.954;2022-10-22T04:06:28;98642.94;;;14.34;nan
63694;BME280;49839;51.798;10.954;2022-10-22T04:08:56;98638.47;;;14.34;nan
63694;BME280;49839;51.798;10.954;2022-10-22T04:11:23;98653.66;;;14.32;nan
63694;BME280;49839;51.798;10.954;2022-10-22T04:13:52;98662.59;;;14.31;nan
63694;BME280;49839;51.798;10.954;2022-10-22T04:16:21;98676.81;;;14.30;nan
63694;BME280;49839;51.798;10.954;2022-10-22T04:18:51;98676.19;;;14.27;nan
63694;BME280;49839;51.798;10.954;2022-10-22T04:21:19;98673.78;;;14.24;nan
63694;BME280;49839;51.798;10.954;2022-10-22T04:23:49;98678.47;;;14.20;nan
63694;BME280;49839;51.798;10.954;2022-10-22T04:26:18;98677.75;;;14.18;nan
63694;BME280;49839;51.798;10.954;2022-10-22T04:28:47;98673.50;;;14.16;nan
63694;BME280;49839;51.798;10.954;2022-10-22T04:31:18;98678.09;;;14.14;nan
63694;BME280;49839;51.798;10.954;2022-10-22T04:33:46;98690.38;;;14.15;nan
63694;BME280;49839;51.798;10.954;2022-10-22T04:36:16;98690.38;;;14.15;nan
63694;BME280;49839;51.798;10.954;2022-10-22T04:38:45;98690.38;;;14.15;nan
63694;BME280;49839;51.798;10.954;2022-10-22T04:41:14;98692.03;;;14.16;nan
63694;BME280;49839;51.798;10.954;2022-10-22T04:43:43;98684.09;;;14.16;nan
63694;BME280;49839;51.798;10.954;2022-10-22T04:46:11;98682.19;;;14.18;nan
63694;BME280;49839;51.798;10.954;2022-10-22T04:48:42;98692.66;;;14.19;nan
63694;BME280;49839;51.798;10.954;2022-10-22T04:51:12;98695.19;;;14.21;nan
63694;BME280;49839;51.798;10.954;2022-10-22T04:53:40;98691.72;;;14.20;nan
63694;BME280;49839;51.798;10.954;2022-10-22T04:56:10;98696.38;;;14.17;nan
63694;BME280;49839;51.798;10.954;2022-10-22T04:58:39;98696.50;;;14.15;nan
63694;BME280;49839;51.798;10.954;2022-10-22T05:01:12;98694.69;;;14.16;nan
63694;BME280;49839;51.798;10.954;2022-10-22T05:03:41;98685.91;;;14.15;nan
63694;BME280;49839;51.798;10.954;2022-10-22T05:06:10;98681.44;;;14.16;nan
63694;BME280;49839;51.798;10.954;2022-10-22T05:08:42;98674.34;;;14.16;nan
63694;BME280;49839;51.798;10.954;2022-10-22T05:11:11;98677.84;;;14.17;nan
63694;BME280;49839;51.798;10.954;2022-10-22T05:13:39;98678.59;;;14.19;nan
63694;BME280;49839;51.798;10.954;2022-10-22T05:16:07;98677.63;;;14.20;nan
63694;BME280;49839;51.798;10.954;2022-10-22T05:18:35;98673.03;;;14.22;nan
63694;BME280;49839;51.798;10.954;2022-10-22T05:21:08;98679.31;;;14.21;nan
63694;BME280;49839;51.798;10.954;2022-10-22T05:23:36;98679.56;;;14.18;nan
63694;BME280;49839;51.798;10.954;2022-10-22T05:26:05;98683.13;;;14.17;nan
63694;BME280;49839;51.798;10.954;2022-10-22T05:28:33;98683.25;;;14.15;nan
63694;BME280;49839;51.798;10.954;2022-10-22T05:31:02;98685.19;;;14.13;nan
63694;BME280;49839;51.798;10.954;2022-10-22T05:33:31;98687.97;;;14.12;nan
63694;BME280;49839;51.798;10.954;2022-10-22T05:36:00;98692.50;;;14.09;nan
63694;BME280;49839;51.798;10.954;2022-10-22T05:38:30;98689.16;;;14.07;nan
63694;BME280;49839;51.798;10.954;2022-10-22T05:40:59;98689.28;;;14.06;nan
63694;BME280;49839;51.798;10.954;2022-10-22T05:43:27;98692.03;;;14.04;nan
63694;BME280;49839;51.798;10.954;2022-10-22T05:45:55;98699.16;;;14.04;nan
63694;BME280;49839;51.798;10.954;2022-10-22T05:48:23;98700.19;;;14.01;nan
63694;BME280;49839;51.798;10.954;2022-10-22T05:50:51;98703.69;;;14.02;nan
63694;BME280;49839;51.798;10.954;2022-10-22T05:53:18;98706.47;;;14.00;nan
63694;BME280;49839;51.798;10.954;2022-10-22T05:55:47;98712.72;;;13.99;nan
63694;BME280;49839;51.798;10.954;2022-10-22T05:58:15;98711.03;;;13.98;nan
63694;BME280;49839;51.798;10.954;2022-10-22T06:00:43;98711.75;;;14.00;nan
63694;BME280;49839;51.798;10.954;2022-10-22T06:03:10;98717.41;;;13.96;nan
63694;BME280;49839;51.798;10.954;2022-10-22T06:05:38;98716.34;;;13.98;nan
63694;BME280;49839;51.798;10.954;2022-10-22T06:08:07;98732.13;;;14.00;nan
63694;BME280;49839;51.798;10.954;2022-10-22T06:10:36;98726.94;;;13.98;nan
63694;BME280;49839;51.798;10.954;2022-10-22T06:13:07;98722.38;;;14.00;nan
63694;BME280;49839;51.798;10.954;2022-10-22T06:15:35;98734.63;;;14.01;nan
63694;BME280;49839;51.798;10.954;2022-10-22T06:18:03;98727.53;;;14.02;nan
63694;BME280;49839;51.798;10.954;2022-10-22T06:20:32;98732.84;;;14.02;nan
63694;BME280;49839;51.798;10.954;2022-10-22T06:23:00;98735.38;;;14.03;nan
63694;BME280;49839;51.798;10.954;2022-10-22T06:25:28;98739.59;;;14.06;nan
63694;BME280;49839;51.798;10.954;2022-10-22T06:27:55;98736.84;;;14.07;nan
63694;BME280;49839;51.798;10.954;2022-10-22T06:30:24;98745.63;;;14.08;nan
63694;BME280;49839;51.798;10.954;2022-10-22T06:32:52;98742.84;;;14.09;nan
63694;BME280;49839;51.798;10.954;2022-10-22T06:35:20;98754.28;;;14.10;nan
63694;BME280;49839;51.798;10.954;2022-10-22T06:37:48;98752.16;;;14.15;nan
63694;BME280;49839;51.798;10.954;2022-10-22T06:40:16;98751.31;;;14.15;nan
63694;BME280;49839;51.798;10.954;2022-10-22T06:42:44;98759.03;;;14.18;nan
63694;BME280;49839;51.798;10.954;2022-10-22T06:45:13;98761.56;;;14.19;nan
63694;BME280;49839;51.798;10.954;2022-10-22T06:47:42;98763.97;;;14.22;nan
63694;BME280;49839;51.798;10.954;2022-10-22T06:50:09;98765.44;;;14.26;nan
63694;BME280;49839;51.798;10.954;2022-10-22T06:52:37;98766.28;;;14.27;nan
63694;BME280;49839;51.798;10.954;2022-10-22T06:55:05;98782.69;;;14.32;nan
63694;BME280;49839;51.798;10.954;2022-10-22T06:57:33;98782.34;;;14.36;nan
63694;BME280;49839;51.798;10.954;2022-10-22T07:00:01;98788.38;;;14.39;nan
63694;BME280;49839;51.798;10.954;2022-10-22T07:02:28;98793.81;;;14.37;nan
63694;BME280;49839;51.798;10.954;2022-10-22T07:04:57;98788.25;;;14.40;nan
63694;BME280;49839;51.798;10.954;2022-10-22T07:07:25;98798.72;;;14.42;nan
63694;BME280;49839;51.798;10.954;2022-10-22T07:09:53;98793.34;;;14.43;nan
63694;BME280;49839;51.798;10.954;2022-10-22T07:12:20;98801.06;;;14.46;nan
63694;BME280;49839;51.798;10.954;2022-10-22T07:14:48;98793.75;;;14.50;nan
63694;BME280;49839;51.798;10.954;2022-10-22T07:17:16;98797.34;;;14.49;nan
63694;BME280;49839;51.798;10.954;2022-10-22T07:19:43;98804.22;;;14.51;nan
63694;BME280;49839;51.798;10.954;2022-10-22T07:22:16;98809.53;;;14.51;nan
63694;BME280;49839;51.798;10.954;2022-10-22T07:24:44;98813.75;;;14.54;nan
63694;BME280;49839;51.798;10.954;2022-10-22T07:27:11;98805.78;;;14.54;nan
63694;BME280;49839;51.798;10.954;2022-10-22T07:29:39;98818.94;;;14.55;nan
63694;BME280;49839;51.798;10.954;2022-10-22T07:32:07;98822.22;;;14.59;nan
63694;BME280;49839;51.798;10.954;2022-10-22T07:34:34;98826.31;;;14.63;nan
63694;BME280;49839;51.798;10.954;2022-10-22T07:37:03;98837.53;;;14.67;nan
63694;BME280;49839;51.798;10.954;2022-10-22T07:39:33;98834.75;;;14.68;nan
63694;BME280;49839;51.798;10.954;2022-10-22T07:42:00;98841.78;;;14.69;nan
63694;BME280;49839;51.798;10.954;2022-10-22T07:44:28;98837.31;;;14.70;nan
63694;BME280;49839;51.798;10.954;2022-10-22T07:46:55;98835.38;;;14.72;nan
63694;BME280;49839;51.798;10.954;2022-10-22T07:49:23;98847.06;;;14.69;nan
63694;BME280;49839;51.798;10.954;2022-10-22T07:51:51;98847.78;;;14.71;nan
63694;BME280;49839;51.798;10.954;2022-10-22T07:54:18;98849.59;;;14.71;nan
63694;BME280;49839;51.798;10.954;2022-10-22T07:56:48;98858.16;;;14.74;nan
63694;BME280;49839;51.798;10.954;2022-10-22T07:59:15;98854.19;;;14.80;nan
63694;BME280;49839;51.798;10.954;2022-10-22T08:01:43;98847.94;;;14.81;nan
63694;BME280;49839;51.798;10.954;2022-10-22T08:04:12;98859.88;;;14.86;nan
63694;BME280;49839;51.798;10.954;2022-10-22T08:06:40;98856.88;;;14.91;nan
63694;BME280;49839;51.798;10.954;2022-10-22T08:09:11;98852.19;;;14.95;nan
63694;BME280;49839;51.798;10.954;2022-10-22T08:11:38;98860.03;;;14.96;nan
63694;BME280;49839;51.798;10.954;2022-10-22T08:14:07;98857.13;;;14.99;nan
63694;BME280;49839;51.798;10.954;2022-10-22T08:16:35;98864.50;;;14.96;nan
63694;BME280;49839;51.798;10.954;2022-10-22T08:19:03;98857.97;;;15.00;nan
63694;BME280;49839;51.798;10.954;2022-10-22T08:21:31;98863.31;;;15.11;nan
63694;BME280;49839;51.798;10.954;2022-10-22T08:23:59;98865.38;;;15.41;nan
63694;BME280;49839;51.798;10.954;2022-10-22T08:26:26;98867.78;;;15.89;nan
63694;BME280;49839;51.798;10.954;2022-10-22T08:28:54;98867.84;;;16.53;nan
63694;BME280;49839;51.798;10.954;2022-10-22T08:31:23;98863.13;;;17.19;nan
63694;BME280;49839;51.798;10.954;2022-10-22T08:33:51;98854.84;;;17.74;nan
63694;BME280;49839;51.798;10.954;2022-10-22T08:36:19;98863.25;;;18.48;nan
63694;BME280;49839;51.798;10.954;2022-10-22T08:38:46;98865.25;;;18.75;nan
63694;BME280;49839;51.798;10.954;2022-10-22T08:41:16;98851.44;;;18.99;nan
63694;BME280;49839;51.798;10.954;2022-10-22T08:43:53;59032.25;;;-144.36;100.00
63694;BME280;49839;51.798;10.954;2022-10-22T08:46:38;98863.84;;;20.02;nan
63694;BME280;49839;51.798;10.954;2022-10-22T08:49:16;98853.72;;;20.41;nan
63694;BME280;49839;51.798;10.954;2022-10-22T08:51:46;98856.00;;;20.18;nan
63694;BME280;49839;51.798;10.954;2022-10-22T08:54:24;59032.25;;;-144.36;100.00
63694;BME280;49839;51.798;10.954;2022-10-22T08:57:00;59032.25;;;-144.36;100.00
63694;BME280;49839;51.798;10.954;2022-10-22T08:59:35;59032.25;;;-144.36;100.00
63694;BME280;49839;51.798;10.954;2022-10-22T09:02:20;59032.25;;;-144.36;100.00
63694;BME280;49839;51.798;10.954;2022-10-22T09:04:54;98860.00;;;20.32;nan
63694;BME280;49839;51.798;10.954;2022-10-22T09:07:25;98856.28;;;20.61;nan
63694;BME280;49839;51.798;10.954;2022-10-22T09:09:54;98848.59;;;20.83;nan
63694;BME280;49839;51.798;10.954;2022-10-22T09:12:26;98854.63;;;20.86;nan
63694;BME280;49839;51.798;10.954;2022-10-22T09:14:54;98858.97;;;21.04;nan
63694;BME280;49839;51.798;10.954;2022-10-22T09:17:29;59032.25;;;-144.36;100.00
63694;BME280;49839;51.798;10.954;2022-10-22T09:20:06;59032.25;;;-144.36;100.00
63694;BME280;49839;51.798;10.954;2022-10-22T09:22:39;59032.25;;;-144.36;100.00
63694;BME280;49839;51.798;10.954;2022-10-22T09:25:18;59032.25;;;-144.36;100.00
63694;BME280;49839;51.798;10.954;2022-10-22T09:27:47;59032.25;;;-144.36;100.00
63694;BME280;49839;51.798;10.954;2022-10-22T09:30:18;59032.25;;;-144.36;100.00
63694;BME280;49839;51.798;10.954;2022-10-22T09:32:49;59032.25;;;-144.36;100.00
63694;BME280;49839;51.798;10.954;2022-10-22T09:35:22;59032.25;;;-144.36;100.00
63694;BME280;49839;51.798;10.954;2022-10-22T09:37:53;59032.25;;;-144.36;100.00
63694;BME280;49839;51.798;10.954;2022-10-22T09:40:22;59032.25;;;-144.36;100.00
63694;BME280;49839;51.798;10.954;2022-10-22T09:42:50;59032.25;;;-144.36;100.00
63694;BME280;49839;51.798;10.954;2022-10-22T09:45:19;59032.25;;;-144.36;100.00
63694;BME280;49839;51.798;10.954;2022-10-22T09:47:49;59032.25;;;-144.36;100.00
63694;BME280;49839;51.798;10.954;2022-10-22T09:50:28;59032.25;;;-144.36;100.00
63694;BME280;49839;51.798;10.954;2022-10-22T09:53:05;59032.25;;;-144.36;100.00
63694;BME280;49839;51.798;10.954;2022-10-22T09:55:38;59032.25;;;-144.36;100.00
63694;BME280;49839;51.798;10.954;2022-10-22T09:58:09;59032.25;;;-144.36;100.00
63694;BME280;49839;51.798;10.954;2022-10-22T10:00:38;59032.25;;;-144.36;100.00
63694;BME280;49839;51.798;10.954;2022-10-22T10:03:15;59032.25;;;-144.36;100.00
63694;BME280;49839;51.798;10.954;2022-10-22T10:05:46;59032.25;;;-144.36;100.00
63694;BME280;49839;51.798;10.954;2022-10-22T10:08:15;59032.25;;;-144.36;100.00
63694;BME280;49839;51.798;10.954;2022-10-22T10:10:46;59032.25;;;-144.36;100.00
63694;BME280;49839;51.798;10.954;2022-10-22T10:13:35;59032.25;;;-144.36;100.00
63694;BME280;49839;51.798;10.954;2022-10-22T10:16:12;59032.25;;;-144.36;100.00
63694;BME280;49839;51.798;10.954;2022-10-22T10:19:03;59032.25;;;-144.36;100.00
63694;BME280;49839;51.798;10.954;2022-10-22T10:21:40;59032.25;;;-144.36;100.00
63694;BME280;49839;51.798;10.954;2022-10-22T10:24:20;59032.25;;;-144.36;100.00
63694;BME280;49839;51.798;10.954;2022-10-22T10:26:54;59032.25;;;-144.36;100.00
63694;BME280;49839;51.798;10.954;2022-10-22T10:29:37;59032.25;;;-144.36;100.00
63694;BME280;49839;51.798;10.954;2022-10-22T10:32:50;59032.25;;;-144.36;100.00
63694;BME280;49839;51.798;10.954;2022-10-22T10:35:29;59032.25;;;-144.36;100.00
63694;BME280;49839;51.798;10.954;2022-10-22T10:38:17;59032.25;;;-144.36;100.00
63694;BME280;49839;51.798;10.954;2022-10-22T10:40:58;59032.25;;;-144.36;100.00
63694;BME280;49839;51.798;10.954;2022-10-22T10:43:39;59032.25;;;-144.36;100.00
63694;BME280;49839;51.798;10.954;2022-10-22T10:46:15;59032.25;;;-144.36;100.00
63694;BME280;49839;51.798;10.954;2022-10-22T10:48:48;59032.25;;;-144.36;100.00
63694;BME280;49839;51.798;10.954;2022-10-22T10:51:30;59032.25;;;-144.36;100.00
63694;BME280;49839;51.798;10.954;2022-10-22T10:54:09;59032.25;;;-144.36;100.00
63694;BME280;49839;51.798;10.954;2022-10-22T10:56:41;59032.25;;;-144.36;100.00
63694;BME280;49839;51.798;10.954;2022-10-22T10:59:22;59032.25;;;-144.36;100.00
63694;BME280;49839;51.798;10.954;2022-10-22T11:02:15;59032.25;;;-144.36;100.00
63694;BME280;49839;51.798;10.954;2022-10-22T11:05:10;59032.25;;;-144.36;100.00
63694;BME280;49839;51.798;10.954;2022-10-22T11:07:53;59032.25;;;-144.36;100.00
63694;BME280;49839;51.798;10.954;2022-10-22T11:10:28;59032.25;;;-144.36;100.00
63694;BME280;49839;51.798;10.954;2022-10-22T11:13:03;59032.25;;;-144.36;100.00
63694;BME280;49839;51.798;10.954;2022-10-22T11:15:35;59032.25;;;-144.36;100.00
63694;BME280;49839;51.798;10.954;2022-10-22T11:18:11;59032.25;;;-144.36;100.00
63694;BME280;49839;51.798;10.954;2022-10-22T11:21:08;59032.25;;;-144.36;100.00
63694;BME280;49839;51.798;10.954;2022-10-22T11:23:44;59032.25;;;-144.36;100.00
63694;BME280;49839;51.798;10.954;2022-10-22T11:26:27;59032.25;;;-144.36;100.00
63694;BME280;49839;51.798;10.954;2022-10-22T11:29:08;59032.25;;;-144.36;100.00
63694;BME280;49839;51.798;10.954;2022-10-22T11:31:39;59032.25;;;-144.36;100.00
63694;BME280;49839;51.798;10.954;2022-10-22T11:34:20;59032.25;;;-144.36;100.00
63694;BME280;49839;51.798;10.954;2022-10-22T11:37:00;59032.25;;;-144.36;100.00
63694;BME280;49839;51.798;10.954;2022-10-22T11:39:35;59032.25;;;-144.36;100.00
63694;BME280;49839;51.798;10.954;2022-10-22T11:42:18;59032.25;;;-144.36;100.00
63694;BME280;49839;51.798;10.954;2022-10-22T11:44:59;59032.25;;;-144.36;100.00
63694;BME280;49839;51.798;10.954;2022-10-22T11:47:31;59032.25;;;-144.36;100.00
63694;BME280;49839;51.798;10.954;2022-10-22T11:50:18;59032.25;;;-144.36;100.00
63694;BME280;49839;51.798;10.954;2022-10-22T11:52:58;59032.25;;;-144.36;100.00
63694;BME280;49839;51.798;10.954;2022-10-22T11:55:42;59032.25;;;-144.36;100.00
63694;BME280;49839;51.798;10.954;2022-10-22T11:58:29;59032.25;;;-144.36;100.00
63694;BME280;49839;51.798;10.954;2022-10-22T12:01:16;59032.25;;;-144.36;100.00
63694;BME280;49839;51.798;10.954;2022-10-22T12:03:48;59032.25;;;-144.36;100.00
63694;BME280;49839;51.798;10.954;2022-10-22T12:06:20;59032.25;;;-144.36;100.00
63694;BME280;49839;51.798;10.954;2022-10-22T12:08:57;59032.25;;;-144.36;100.00
63694;BME280;49839;51.798;10.954;2022-10-22T12:11:35;59032.25;;;-144.36;100.00
63694;BME280;49839;51.798;10.954;2022-10-22T12:14:18;59032.25;;;-144.36;100.00
63694;BME280;49839;51.798;10.954;2022-10-22T12:16:51;59032.25;;;-144.36;100.00
63694;BME280;49839;51.798;10.954;2022-10-22T12:19:28;59032.25;;;-144.36;100.00
63694;BME280;49839;51.798;10.954;2022-10-22T12:21:59;59032.25;;;-144.36;100.00
63694;BME280;49839;51.798;10.954;2022-10-22T12:24:33;59032.25;;;-144.36;100.00
63694;BME280;49839;51.798;10.954;2022-10-22T12:27:16;59032.25;;;-144.36;100.00
63694;BME280;49839;51.798;10.954;2022-10-22T12:29:53;59032.25;;;-144.36;100.00
63694;BME280;49839;51.798;10.954;2022-10-22T12:32:21;59032.25;;;-144.36;100.00
63694;BME280;49839;51.798;10.954;2022-10-22T12:34:51;59032.25;;;-144.36;100.00
63694;BME280;49839;51.798;10.954;2022-10-22T12:37:20;59032.25;;;-144.36;100.00
63694;BME280;49839;51.798;10.954;2022-10-22T12:39:48;59032.25;;;-144.36;100.00
63694;BME280;49839;51.798;10.954;2022-10-22T12:42:18;59032.25;;;-144.36;100.00
63694;BME280;49839;51.798;10.954;2022-10-22T12:44:53;59032.25;;;-144.36;100.00
63694;BME280;49839;51.798;10.954;2022-10-22T12:47:22;59032.25;;;-144.36;100.00
63694;BME280;49839;51.798;10.954;2022-10-22T12:49:51;59032.25;;;-144.36;100.00
63694;BME280;49839;51.798;10.954;2022-10-22T12:52:20;59032.25;;;-144.36;100.00
63694;BME280;49839;51.798;10.954;2022-10-22T12:54:51;59032.25;;;-144.36;100.00
63694;BME280;49839;51.798;10.954;2022-10-22T12:57:24;59032.25;;;-144.36;100.00
63694;BME280;49839;51.798;10.954;2022-10-22T12:59:52;59032.25;;;-144.36;100.00
63694;BME280;49839;51.798;10.954;2022-10-22T13:02:23;59032.25;;;-144.36;100.00
63694;BME280;49839;51.798;10.954;2022-10-22T13:05:19;59032.25;;;-144.36;100.00
63694;BME280;49839;51.798;10.954;2022-10-22T13:07:51;59032.25;;;-144.36;100.00
63694;BME280;49839;51.798;10.954;2022-10-22T13:10:24;59032.25;;;-144.36;100.00
63694;BME280;49839;51.798;10.954;2022-10-22T13:12:56;59032.25;;;-144.36;100.00
63694;BME280;49839;51.798;10.954;2022-10-22T13:15:35;59032.25;;;-144.36;100.00
63694;BME280;49839;51.798;10.954;2022-10-22T13:18:14;59032.25;;;-144.36;100.00
63694;BME280;49839;51.798;10.954;2022-10-22T13:20:51;59032.25;;;-144.36;100.00